Madisonville, LA (70447)

6:37 PM CDT on July 30, 2015 (GMT -0500)
Autumn Creek | | Change Station
CLOSE
Current Station
Personal Weather Station
Location: Madisonville, LA
Elevation: 23 ft
Nearby Weather Stations

Elev 23 ft 30.43 °N, 90.19 °W | Updated 14 minutes ago

Mostly Cloudy
Mostly Cloudy
74.8 °F
Feels Like 73 °F
N
2.7
Wind Variable Wind from NNW

Today
High -- | Low -- °F
--% Chance of Precip.
Yesterday
High -- | Low -- °F
Precip. -- in
6:17 AM 7:56 PM
Full, 100% visible
Pressure 30.00 in
Visibility 10.0 miles
Clouds Scattered Clouds 500 ft
Scattered Clouds 800 ft
Scattered Clouds 3300 ft
Heat Index 73 °F
Dew Point 73 °F
Humidity 93%
Rainfall 0.76 in
Snow Depth Not available.
UV 1 out of 12
Pollen 1.80 out of 12
Air Quality Not available.
Flu Activity Not available.
METAR KHDC 302315Z AUTO 00000KT 10SM SCT005 SCT008 SCT033 24/22 A3000 RMK AO2 LTG DSNT E SW AND W

More Conditions Fewer Conditions

Pressure 30.00 in
Visibility 10.0 miles
Clouds Scattered Clouds 500 ft
Scattered Clouds 800 ft
Scattered Clouds 3300 ft
Heat Index 73 °F
Dew Point 73 °F
Humidity 93%
Rainfall 0.76 in
Snow Depth Not available.
UV 1 out of 12
Pollen 1.80 out of 12
Air Quality Not available.
Flu Activity Not available.
METAR KHDC 302315Z AUTO 00000KT 10SM SCT005 SCT008 SCT033 24/22 A3000 RMK AO2 LTG DSNT E SW AND W

More Conditions Fewer Conditions

10-Day Weather Forecast

×

Almanac

Astronomy

Jul. 30, 2015 Rise Set
Actual Time
Civil Twilight
Nautical Twilight
Astronomical Twilight
Moon
Length of Visible Light
Length of Day
Tomorrow will be .
, % of the Moon is Illuminated

Today's Extremes

State Highs State Lows

Community

WunderPhotos

Upload Photos

1,842,542 photos uploaded!

WunderBlogs® & News

Nearby

Air Quality

  Air Quality AQ Index Pollutant
Not available.

Snow Depth

Station Depth Elevation

Earthquake Activity

City Distance Mag. Time & Date
Minimum magnitude displayed is 2.5.

Coastal Water Temperatures

Place Temperature

Stations

Nearby Weather Stations

Station Location Temp. Windchill Dew Point Humidity Wind Precip. Elev Updated Type